createdAt,value
2022-10-13T00:01:12.923Z,8.70
2022-10-13T00:03:17.915Z,8.69
2022-10-13T00:05:21.774Z,8.69
2022-10-13T00:07:25.614Z,8.73
2022-10-13T00:09:29.372Z,8.72
2022-10-13T00:11:33.732Z,8.72
2022-10-13T00:13:38.022Z,8.70
2022-10-13T00:15:42.761Z,8.68
2022-10-13T00:17:48.331Z,8.67
2022-10-13T00:19:51.887Z,8.64
2022-10-13T00:21:55.724Z,8.62
2022-10-13T00:24:00.021Z,8.64
2022-10-13T00:26:06.081Z,8.63
2022-10-13T00:28:09.654Z,8.63
2022-10-13T00:30:14.221Z,8.62
2022-10-13T00:32:18.050Z,8.60
2022-10-13T00:34:23.518Z,8.56
2022-10-13T00:36:27.249Z,8.55
2022-10-13T00:38:30.754Z,8.53
2022-10-13T00:40:34.732Z,8.50
2022-10-13T00:42:38.438Z,8.48
2022-10-13T00:45:04.025Z,8.46
2022-10-13T00:47:07.826Z,8.45
2022-10-13T00:49:16.572Z,8.41
2022-10-13T00:51:27.963Z,8.38
2022-10-13T00:53:35.760Z,8.34
2022-10-13T00:55:41.675Z,8.30
2022-10-13T00:57:47.402Z,8.28
2022-10-13T00:59:51.312Z,8.25
2022-10-13T01:01:55.550Z,8.20
2022-10-13T01:03:59.124Z,8.17
2022-10-13T01:06:05.563Z,8.13
2022-10-13T01:08:12.479Z,8.08
2022-10-13T01:10:24.822Z,8.06
2022-10-13T01:12:42.433Z,8.07
2022-10-13T01:14:54.728Z,8.04
2022-10-13T01:17:07.656Z,8.03
2022-10-13T01:19:27.232Z,7.99
2022-10-13T01:21:35.043Z,7.98
2022-10-13T01:24:16.350Z,7.97
2022-10-13T01:26:44.603Z,7.90
2022-10-13T01:29:09.061Z,7.87
2022-10-13T01:31:22.657Z,7.87
2022-10-13T01:33:36.543Z,7.84
2022-10-13T01:35:50.279Z,7.82
2022-10-13T01:37:59.390Z,7.82
2022-10-13T01:40:08.217Z,7.78
2022-10-13T01:42:17.822Z,7.78
2022-10-13T01:44:27.141Z,7.76
2022-10-13T01:46:36.140Z,7.74
2022-10-13T01:48:41.727Z,7.72
2022-10-13T01:50:46.000Z,7.70
2022-10-13T01:52:51.697Z,7.68
2022-10-13T01:54:57.037Z,7.66
2022-10-13T01:57:01.091Z,7.63
2022-10-13T01:59:08.510Z,7.62
2022-10-13T02:01:25.472Z,7.60
2022-10-13T02:03:40.288Z,7.58
2022-10-13T02:05:50.487Z,7.60
2022-10-13T02:08:01.418Z,7.59
2022-10-13T02:10:13.322Z,7.59
2022-10-13T02:12:22.817Z,7.57
2022-10-13T02:14:29.897Z,7.57
2022-10-13T02:16:37.759Z,7.55
2022-10-13T02:18:43.841Z,7.56
2022-10-13T02:20:48.569Z,7.55
2022-10-13T02:22:57.062Z,7.49
2022-10-13T02:25:00.797Z,7.43
2022-10-13T02:27:06.708Z,7.41
2022-10-13T02:29:11.126Z,7.41
2022-10-13T02:31:14.399Z,7.41
2022-10-13T02:33:18.444Z,7.39
2022-10-13T02:35:23.127Z,7.37
2022-10-13T02:37:26.554Z,7.35
2022-10-13T02:39:29.833Z,7.32
2022-10-13T02:41:33.084Z,7.31
2022-10-13T02:43:37.979Z,7.25
2022-10-13T02:45:41.310Z,7.23
2022-10-13T02:47:44.567Z,7.20
2022-10-13T02:49:47.811Z,7.18
2022-10-13T02:51:53.425Z,7.15
2022-10-13T02:53:56.775Z,7.13
2022-10-13T02:56:00.147Z,7.13
2022-10-13T02:58:04.334Z,7.13
2022-10-13T03:00:09.332Z,7.09
2022-10-13T03:02:12.968Z,7.08
2022-10-13T03:04:16.469Z,7.05
2022-10-13T03:06:19.701Z,7.06
2022-10-13T03:08:25.001Z,7.03
2022-10-13T03:10:28.460Z,7.05
2022-10-13T03:12:33.513Z,7.05
2022-10-13T03:14:37.242Z,7.03
2022-10-13T03:16:40.765Z,7.04
2022-10-13T03:18:46.390Z,7.03
2022-10-13T03:20:57.706Z,6.99
2022-10-13T03:23:01.063Z,6.93
2022-10-13T03:25:06.594Z,6.90
2022-10-13T03:27:10.071Z,6.88
2022-10-13T03:29:14.930Z,6.84
2022-10-13T03:31:19.007Z,6.84
2022-10-13T03:33:23.249Z,6.83
2022-10-13T03:35:28.961Z,6.82
2022-10-13T03:37:32.282Z,6.81
2022-10-13T03:39:35.995Z,6.78
2022-10-13T03:41:41.179Z,6.80
2022-10-13T03:43:45.675Z,6.78
2022-10-13T03:45:56.434Z,6.73
2022-10-13T03:47:59.780Z,6.70
2022-10-13T03:50:03.200Z,6.70
2022-10-13T03:52:06.824Z,6.68
2022-10-13T03:54:12.219Z,6.69
2022-10-13T03:56:17.600Z,6.68
2022-10-13T03:58:29.540Z,6.62
2022-10-13T04:00:32.745Z,6.62
2022-10-13T04:02:35.999Z,6.56
2022-10-13T04:04:39.924Z,6.50
2022-10-13T04:06:43.390Z,6.40
2022-10-13T04:08:46.733Z,6.31
2022-10-13T04:10:49.941Z,6.32
2022-10-13T04:12:53.140Z,6.30
2022-10-13T04:14:57.814Z,6.29
2022-10-13T04:17:01.074Z,6.25
2022-10-13T04:19:06.767Z,6.27
2022-10-13T04:21:11.093Z,6.31
2022-10-13T04:23:14.588Z,6.33
2022-10-13T04:25:24.114Z,6.34
2022-10-13T04:27:27.421Z,6.36
2022-10-13T04:29:30.795Z,6.36
2022-10-13T04:31:35.819Z,6.36
2022-10-13T04:33:39.161Z,6.33
2022-10-13T04:35:43.155Z,6.32
2022-10-13T04:37:46.397Z,6.30
2022-10-13T04:39:49.729Z,6.27
2022-10-13T04:41:52.953Z,6.25
2022-10-13T04:43:56.324Z,6.26
2022-10-13T04:46:02.898Z,6.24
2022-10-13T04:48:07.931Z,6.23
2022-10-13T04:50:11.893Z,6.18
2022-10-13T04:52:15.145Z,6.11
2022-10-13T04:54:18.453Z,6.10
2022-10-13T04:56:21.670Z,6.12
2022-10-13T04:58:24.962Z,6.14
2022-10-13T05:00:28.686Z,6.13
2022-10-13T05:02:32.045Z,6.12
2022-10-13T05:04:36.972Z,6.11
2022-10-13T05:07:05.311Z,6.09
2022-10-13T05:09:06.005Z,6.08
2022-10-13T05:11:09.362Z,6.08
2022-10-13T05:13:12.611Z,6.08
2022-10-13T05:15:16.167Z,6.09
2022-10-13T05:17:19.452Z,6.09
2022-10-13T05:19:22.794Z,6.08
2022-10-13T05:21:29.765Z,6.07
2022-10-13T05:23:33.658Z,6.04
2022-10-13T05:25:37.982Z,6.04
2022-10-13T05:27:41.333Z,6.00
2022-10-13T05:29:45.850Z,5.98
2022-10-13T05:31:49.104Z,5.92
2022-10-13T05:33:53.142Z,5.85
2022-10-13T05:36:05.317Z,5.86
2022-10-13T05:38:13.857Z,5.88
2022-10-13T05:40:21.434Z,5.91
2022-10-13T05:42:24.617Z,5.94
2022-10-13T05:44:28.014Z,5.93
2022-10-13T05:46:32.045Z,5.92
2022-10-13T05:48:35.801Z,5.93
2022-10-13T05:50:39.025Z,5.95
2022-10-13T05:52:43.696Z,5.94
2022-10-13T05:54:51.770Z,5.90
2022-10-13T05:56:58.744Z,5.89
2022-10-13T05:59:07.902Z,5.87
2022-10-13T06:01:14.838Z,5.85
2022-10-13T06:03:23.462Z,5.82
2022-10-13T06:05:28.637Z,5.83
2022-10-13T06:07:33.018Z,5.83
2022-10-13T06:09:39.063Z,5.79
2022-10-13T06:11:43.670Z,5.77
2022-10-13T06:13:46.990Z,5.78
2022-10-13T06:15:50.280Z,5.76
2022-10-13T06:17:53.568Z,5.74
2022-10-13T06:19:56.883Z,5.76
2022-10-13T06:22:03.596Z,5.80
2022-10-13T06:24:07.626Z,5.82
2022-10-13T06:26:10.854Z,5.83
2022-10-13T06:28:16.621Z,5.84
2022-10-13T06:30:19.963Z,5.86
2022-10-13T06:32:23.374Z,5.85
2022-10-13T06:34:26.788Z,5.87
2022-10-13T06:36:30.040Z,5.88
2022-10-13T06:38:33.890Z,5.89
2022-10-13T06:40:37.153Z,5.91
2022-10-13T06:42:40.642Z,5.92
2022-10-13T06:44:46.853Z,5.93
2022-10-13T06:46:50.343Z,5.95
2022-10-13T06:48:54.340Z,5.93
2022-10-13T06:51:02.345Z,5.93
2022-10-13T06:53:05.693Z,5.95
2022-10-13T06:55:09.708Z,5.96
2022-10-13T06:57:13.050Z,5.95
2022-10-13T06:59:16.577Z,5.97
2022-10-13T07:01:23.888Z,5.95
2022-10-13T07:03:27.221Z,5.97
2022-10-13T07:05:30.649Z,6.03
2022-10-13T07:07:34.302Z,6.06
2022-10-13T07:09:37.693Z,6.01
2022-10-13T07:11:41.555Z,6.00
2022-10-13T07:13:47.141Z,6.07
2022-10-13T07:15:52.154Z,6.06
2022-10-13T07:17:57.285Z,6.09
2022-10-13T07:20:03.669Z,6.16
2022-10-13T07:22:10.873Z,6.23
2022-10-13T07:24:14.652Z,6.30
2022-10-13T07:26:18.639Z,6.33
2022-10-13T07:28:22.304Z,6.38
2022-10-13T07:30:27.049Z,6.43
2022-10-13T07:32:31.130Z,6.47
2022-10-13T07:34:36.331Z,6.43
2022-10-13T07:36:41.836Z,6.44
2022-10-13T07:38:45.593Z,6.46
2022-10-13T07:40:49.444Z,6.48
2022-10-13T07:42:53.072Z,6.54
2022-10-13T07:44:56.639Z,6.60
2022-10-13T07:47:02.432Z,6.67
2022-10-13T07:49:06.105Z,6.72
2022-10-13T07:51:13.666Z,6.76
2022-10-13T07:53:17.390Z,6.82
2022-10-13T07:55:20.985Z,6.86
2022-10-13T07:57:29.908Z,6.89
2022-10-13T07:59:34.263Z,6.89
2022-10-13T08:01:38.471Z,6.94
2022-10-13T08:03:45.755Z,7.02
2022-10-13T08:05:56.312Z,7.10
2022-10-13T08:08:01.358Z,7.15
2022-10-13T08:10:06.089Z,7.19
2022-10-13T08:12:09.823Z,7.22
2022-10-13T08:14:15.204Z,7.29
2022-10-13T08:16:19.194Z,7.39
2022-10-13T08:18:22.857Z,7.44
2022-10-13T08:20:32.126Z,7.56
2022-10-13T08:22:45.261Z,7.68
2022-10-13T08:24:50.359Z,7.82
2022-10-13T08:26:54.391Z,7.95
2022-10-13T08:29:16.654Z,8.06
2022-10-13T08:31:22.442Z,8.20
2022-10-13T08:33:29.299Z,8.32
2022-10-13T08:35:34.780Z,8.46
2022-10-13T08:37:38.573Z,8.62
2022-10-13T08:39:42.180Z,8.87
2022-10-13T08:41:47.562Z,9.15
2022-10-13T08:44:33.638Z,9.40
2022-10-13T08:46:24.690Z,9.73
2022-10-13T08:48:32.876Z,10.04
2022-10-13T08:50:40.569Z,10.30
2022-10-13T08:52:48.674Z,10.49
2022-10-13T08:54:53.114Z,10.74
2022-10-13T08:56:58.565Z,10.98
2022-10-13T08:59:04.784Z,11.20
2022-10-13T09:01:14.972Z,11.41
2022-10-13T09:03:26.824Z,11.61
2022-10-13T09:05:39.135Z,11.71
2022-10-13T09:07:42.829Z,11.87
2022-10-13T09:09:46.537Z,12.06
2022-10-13T09:11:51.897Z,12.24
2022-10-13T09:13:59.997Z,12.41
2022-10-13T09:16:03.560Z,12.57
2022-10-13T09:18:12.264Z,12.72
2022-10-13T09:20:21.496Z,12.89
2022-10-13T09:22:27.625Z,13.08
2022-10-13T09:24:31.300Z,13.23
2022-10-13T09:26:39.302Z,13.37
2022-10-13T09:28:42.785Z,13.56
2022-10-13T09:30:49.775Z,13.71
2022-10-13T09:32:57.470Z,13.87
2022-10-13T09:35:22.169Z,14.05
2022-10-13T09:37:27.264Z,14.18
2022-10-13T09:39:31.793Z,14.33
2022-10-13T09:41:36.722Z,14.52
2022-10-13T09:43:44.413Z,14.64
2022-10-13T09:45:55.194Z,14.74
2022-10-13T09:48:04.802Z,14.80
2022-10-13T09:50:19.458Z,14.89
2022-10-13T09:52:25.390Z,14.88
2022-10-13T09:54:38.393Z,14.81
2022-10-13T09:56:47.704Z,14.91
2022-10-13T09:58:57.221Z,14.97
2022-10-13T10:01:03.544Z,15.07
2022-10-13T10:03:12.398Z,15.21
2022-10-13T10:05:22.774Z,15.30
2022-10-13T10:07:30.835Z,15.36
2022-10-13T10:09:41.344Z,15.43
2022-10-13T10:11:49.109Z,15.40
2022-10-13T10:13:53.849Z,15.44
2022-10-13T10:16:04.061Z,15.45
2022-10-13T10:18:14.224Z,15.52
2022-10-13T10:20:44.776Z,15.66
2022-10-13T10:22:57.674Z,15.77
2022-10-13T10:25:11.936Z,15.81
2022-10-13T10:29:33.966Z,15.80
2022-10-13T10:31:47.412Z,15.82
2022-10-13T10:34:06.150Z,15.78
2022-10-13T10:36:17.203Z,15.63
2022-10-13T10:38:34.464Z,15.44
2022-10-13T10:40:47.555Z,15.37
2022-10-13T10:43:06.253Z,15.42
2022-10-13T10:45:18.808Z,15.42
2022-10-13T10:47:29.302Z,15.46
2022-10-13T10:49:36.586Z,15.53
2022-10-13T10:51:40.694Z,15.59
2022-10-13T10:53:55.080Z,15.63
2022-10-13T10:56:05.827Z,15.59
2022-10-13T10:58:23.885Z,15.46
2022-10-13T11:02:48.573Z,15.02
2022-10-13T11:04:55.457Z,14.85
2022-10-13T11:07:00.682Z,14.68
2022-10-13T11:09:05.971Z,14.50
2022-10-13T11:11:37.834Z,14.37
2022-10-13T11:13:55.124Z,14.27
2022-10-13T11:15:58.882Z,14.18
2022-10-13T11:18:02.779Z,14.14
2022-10-13T11:20:59.854Z,14.08
2022-10-13T11:23:31.795Z,14.04
2022-10-13T11:25:40.179Z,14.03
2022-10-13T11:27:46.948Z,14.08
2022-10-13T11:29:57.060Z,14.16
2022-10-13T11:32:00.805Z,14.27
2022-10-13T11:34:05.530Z,14.40
2022-10-13T11:36:38.239Z,14.65
2022-10-13T11:38:44.668Z,14.92
2022-10-13T11:41:05.715Z,15.14
2022-10-13T11:43:36.362Z,15.32
2022-10-13T11:45:53.227Z,15.48
2022-10-13T11:48:19.744Z,15.62
2022-10-13T11:50:30.447Z,15.68
2022-10-13T11:52:50.324Z,15.70
2022-10-13T11:54:59.570Z,15.72
2022-10-13T11:57:04.839Z,15.68
2022-10-13T11:59:22.073Z,15.61
2022-10-13T12:01:25.796Z,15.52
2022-10-13T12:03:32.132Z,15.49
2022-10-13T12:05:36.287Z,15.44
2022-10-13T12:07:44.186Z,15.36
2022-10-13T12:09:53.557Z,15.26
2022-10-13T12:12:03.258Z,15.25
2022-10-13T12:14:17.814Z,15.21
2022-10-13T12:16:23.456Z,15.15
2022-10-13T12:18:30.272Z,15.18
2022-10-13T12:20:34.629Z,15.23
2022-10-13T12:22:40.349Z,15.23
2022-10-13T12:24:59.169Z,15.25
2022-10-13T12:27:13.349Z,15.32
2022-10-13T12:29:19.386Z,15.35
2022-10-13T12:31:25.350Z,15.34
2022-10-13T12:33:32.495Z,15.31
2022-10-13T12:35:37.264Z,15.30
2022-10-13T12:37:42.568Z,15.30
2022-10-13T12:39:49.940Z,15.30
2022-10-13T12:41:55.947Z,15.34
2022-10-13T12:44:04.056Z,15.36
2022-10-13T12:46:11.575Z,15.37
2022-10-13T12:48:33.242Z,15.37
2022-10-13T12:50:39.178Z,15.36
2022-10-13T12:52:44.025Z,15.36
2022-10-13T12:54:52.261Z,15.40
2022-10-13T12:56:59.439Z,15.45
2022-10-13T12:59:04.000Z,15.50
2022-10-13T13:01:11.435Z,15.49
2022-10-13T13:03:24.769Z,15.49
2022-10-13T13:05:31.828Z,15.44
2022-10-13T13:07:39.274Z,15.35
2022-10-13T13:09:43.283Z,15.26
2022-10-13T13:11:49.306Z,15.17
2022-10-13T13:13:53.139Z,15.15
2022-10-13T13:16:15.316Z,15.14
2022-10-13T13:18:35.972Z,15.17
2022-10-13T13:20:39.962Z,15.19
2022-10-13T13:22:43.683Z,15.21
2022-10-13T13:24:47.931Z,15.24
2022-10-13T13:26:53.417Z,15.25
2022-10-13T13:28:58.373Z,15.25
2022-10-13T13:31:02.579Z,15.23
2022-10-13T13:33:06.317Z,15.19
2022-10-13T13:35:11.399Z,15.15
2022-10-13T13:37:18.822Z,15.10
2022-10-13T13:39:23.137Z,15.05
2022-10-13T13:41:31.151Z,15.04
2022-10-13T13:43:36.873Z,15.01
2022-10-13T13:45:41.469Z,15.00
2022-10-13T13:47:46.171Z,15.01
2022-10-13T13:49:51.097Z,15.03
2022-10-13T13:51:55.428Z,15.04
2022-10-13T13:53:59.617Z,14.99
2022-10-13T13:56:04.032Z,14.95
2022-10-13T13:58:08.372Z,14.94
2022-10-13T14:00:17.600Z,14.92
2022-10-13T14:02:26.664Z,14.91
2022-10-13T14:04:31.949Z,14.94
2022-10-13T14:06:36.895Z,14.96
2022-10-13T14:08:43.038Z,14.99
2022-10-13T14:10:47.936Z,15.00
2022-10-13T14:12:55.765Z,14.98
2022-10-13T14:15:00.342Z,14.94
2022-10-13T14:17:07.265Z,14.89
2022-10-13T14:19:11.471Z,14.85
2022-10-13T14:21:15.954Z,14.82
2022-10-13T14:23:20.055Z,14.78
2022-10-13T14:25:24.898Z,14.75
2022-10-13T14:27:29.050Z,14.72
2022-10-13T14:29:33.643Z,14.69
2022-10-13T14:31:37.928Z,14.65
2022-10-13T14:33:44.563Z,14.61
2022-10-13T14:35:48.925Z,14.56
2022-10-13T14:37:53.484Z,14.52
2022-10-13T14:39:57.422Z,14.48
2022-10-13T14:42:01.857Z,14.44
2022-10-13T14:44:06.395Z,14.38
2022-10-13T14:46:11.149Z,14.33
2022-10-13T14:48:15.638Z,14.28
2022-10-13T14:50:22.273Z,14.22
2022-10-13T14:52:32.699Z,14.15
2022-10-13T14:54:41.157Z,14.08
2022-10-13T14:56:48.565Z,14.05
2022-10-13T14:58:54.459Z,14.01
2022-10-13T15:00:59.792Z,13.99
2022-10-13T15:03:04.731Z,13.95
2022-10-13T15:05:09.662Z,13.93
2022-10-13T15:07:16.129Z,13.91
2022-10-13T15:09:25.586Z,13.90
2022-10-13T15:11:38.610Z,13.87
2022-10-13T15:13:43.788Z,13.86
2022-10-13T15:15:49.251Z,13.86
2022-10-13T15:17:53.719Z,13.88
2022-10-13T15:19:58.436Z,13.90
2022-10-13T15:22:03.116Z,13.94
2022-10-13T15:24:09.640Z,13.95
2022-10-13T15:26:15.732Z,13.98
2022-10-13T15:28:20.045Z,13.99
2022-10-13T15:30:24.949Z,14.00
2022-10-13T15:32:29.372Z,13.98
2022-10-13T15:34:39.775Z,13.97
2022-10-13T15:36:44.806Z,13.95
2022-10-13T15:38:49.184Z,13.95
2022-10-13T15:41:00.808Z,13.94
2022-10-13T15:43:05.273Z,13.96
2022-10-13T15:45:11.589Z,13.96
2022-10-13T15:47:17.450Z,13.97
2022-10-13T15:49:22.417Z,14.00
2022-10-13T15:51:27.416Z,14.01
2022-10-13T15:53:32.480Z,14.04
2022-10-13T15:55:37.386Z,14.05
2022-10-13T15:57:44.117Z,14.08
2022-10-13T15:59:48.907Z,14.07
2022-10-13T16:01:54.070Z,14.04
2022-10-13T16:03:58.947Z,14.03
2022-10-13T16:06:06.657Z,14.01
2022-10-13T16:08:12.298Z,13.99
2022-10-13T16:10:18.878Z,13.97
2022-10-13T16:12:24.904Z,13.95
2022-10-13T16:14:30.669Z,13.93
2022-10-13T16:16:35.761Z,13.89
2022-10-13T16:18:41.137Z,13.86
2022-10-13T16:20:45.655Z,13.84
2022-10-13T16:22:49.985Z,13.82
2022-10-13T16:24:54.751Z,13.78
2022-10-13T16:26:59.125Z,13.75
2022-10-13T16:29:04.694Z,13.74
2022-10-13T16:31:13.966Z,13.70
2022-10-13T16:33:19.499Z,13.68
2022-10-13T16:35:23.676Z,13.65
2022-10-13T16:37:27.819Z,13.63
2022-10-13T16:39:32.476Z,13.61
2022-10-13T16:41:38.331Z,13.58
2022-10-13T16:43:43.917Z,13.57
2022-10-13T16:45:59.903Z,13.56
2022-10-13T16:48:06.909Z,13.53
2022-10-13T16:50:12.366Z,13.52
2022-10-13T16:52:16.604Z,13.50
2022-10-13T16:54:22.116Z,13.49
2022-10-13T16:56:28.676Z,13.48
2022-10-13T16:58:32.983Z,13.46
2022-10-13T17:00:39.407Z,13.46
2022-10-13T17:02:43.331Z,13.46
2022-10-13T17:04:49.340Z,13.44
2022-10-13T17:06:53.474Z,13.42
2022-10-13T17:08:58.446Z,13.41
2022-10-13T17:11:02.627Z,13.40
2022-10-13T17:13:06.420Z,13.40
2022-10-13T17:15:11.940Z,13.37
2022-10-13T17:17:17.161Z,13.35
2022-10-13T17:19:21.109Z,13.30
2022-10-13T17:21:26.991Z,13.28
2022-10-13T17:23:31.962Z,13.25
2022-10-13T17:25:36.208Z,13.21
2022-10-13T17:27:45.887Z,13.21
2022-10-13T17:29:50.411Z,13.18
2022-10-13T17:31:54.647Z,13.18
2022-10-13T17:34:00.841Z,13.17
2022-10-13T17:36:08.343Z,13.17
2022-10-13T17:38:14.128Z,13.18
2022-10-13T17:40:18.543Z,13.18
2022-10-13T17:42:22.572Z,13.16
2022-10-13T17:44:28.303Z,13.16
2022-10-13T17:46:38.750Z,13.13
2022-10-13T17:48:43.795Z,13.12
2022-10-13T17:50:48.109Z,13.10
2022-10-13T17:52:52.373Z,13.09
2022-10-13T17:54:57.967Z,13.08
2022-10-13T17:57:04.756Z,13.08
2022-10-13T17:59:10.063Z,13.06
2022-10-13T18:01:16.998Z,13.05
2022-10-13T18:03:22.331Z,13.02
2022-10-13T18:05:26.540Z,13.00
2022-10-13T18:07:30.574Z,12.98
2022-10-13T18:09:34.425Z,12.96
2022-10-13T18:11:43.353Z,12.92
2022-10-13T18:13:51.734Z,12.89
2022-10-13T18:15:55.745Z,12.87
2022-10-13T18:17:59.958Z,12.82
2022-10-13T18:20:06.047Z,12.79
2022-10-13T18:22:12.037Z,12.76
2022-10-13T18:24:16.348Z,12.70
2022-10-13T18:26:21.947Z,12.66
2022-10-13T18:28:30.006Z,12.61
2022-10-13T18:30:35.012Z,12.57
2022-10-13T18:32:38.715Z,12.52
2022-10-13T18:34:42.678Z,12.49
2022-10-13T18:36:48.620Z,12.45
2022-10-13T18:38:52.337Z,12.42
2022-10-13T18:41:01.331Z,12.38
2022-10-13T18:43:05.313Z,12.33
2022-10-13T18:45:11.987Z,12.30
2022-10-13T18:47:16.197Z,12.26
2022-10-13T18:49:23.324Z,12.25
2022-10-13T18:51:35.955Z,12.22
2022-10-13T18:53:42.443Z,12.21
2022-10-13T18:55:48.908Z,12.17
2022-10-13T18:57:52.978Z,12.15
2022-10-13T18:59:56.873Z,12.13
2022-10-13T19:02:08.671Z,12.10
2022-10-13T19:04:15.369Z,12.08
2022-10-13T19:06:23.481Z,12.07
2022-10-13T19:08:31.695Z,12.05
2022-10-13T19:10:35.596Z,12.01
2022-10-13T19:12:39.472Z,12.00
2022-10-13T19:14:43.192Z,11.98
2022-10-13T19:16:46.903Z,11.97
2022-10-13T19:18:53.899Z,11.95
2022-10-13T19:20:58.159Z,11.91
2022-10-13T19:23:02.144Z,11.90
2022-10-13T19:25:06.760Z,11.90
2022-10-13T19:27:11.317Z,11.88
2022-10-13T19:29:16.749Z,11.88
2022-10-13T19:31:23.698Z,11.87
2022-10-13T19:33:28.158Z,11.88
2022-10-13T19:35:33.208Z,11.90
2022-10-13T19:37:38.177Z,11.93
2022-10-13T19:39:42.170Z,11.98
2022-10-13T19:41:47.329Z,12.02
2022-10-13T19:43:51.831Z,12.06
2022-10-13T19:45:59.798Z,12.09
2022-10-13T19:48:03.793Z,12.10
2022-10-13T19:50:09.116Z,12.14
2022-10-13T19:52:15.258Z,12.17
2022-10-13T19:54:21.074Z,12.21
2022-10-13T19:56:27.232Z,12.24
2022-10-13T19:58:31.692Z,12.25
2022-10-13T20:00:37.846Z,12.26
2022-10-13T20:02:42.775Z,12.27
2022-10-13T20:04:46.597Z,12.28
2022-10-13T20:06:51.379Z,12.28
2022-10-13T20:08:56.827Z,12.28
2022-10-13T20:11:01.133Z,12.26
2022-10-13T20:13:04.972Z,12.25
2022-10-13T20:15:12.855Z,12.23
2022-10-13T20:17:19.970Z,12.22
2022-10-13T20:19:30.971Z,12.20
2022-10-13T20:21:34.933Z,12.19
2022-10-13T20:23:38.795Z,12.18
2022-10-13T20:25:44.098Z,12.17
2022-10-13T20:27:47.843Z,12.17
2022-10-13T20:29:51.866Z,12.17
2022-10-13T20:31:55.672Z,12.16
2022-10-13T20:34:00.111Z,12.14
2022-10-13T20:36:10.289Z,12.13
2022-10-13T20:38:14.220Z,12.11
2022-10-13T20:40:18.230Z,12.09
2022-10-13T20:42:23.561Z,12.07
2022-10-13T20:44:27.604Z,12.03
2022-10-13T20:46:31.545Z,12.01
2022-10-13T20:49:05.080Z,11.97
2022-10-13T20:51:02.970Z,11.94
2022-10-13T20:53:07.090Z,11.93
2022-10-13T20:55:11.484Z,11.91
2022-10-13T20:57:15.585Z,11.88
2022-10-13T20:59:23.254Z,11.87
2022-10-13T21:01:27.108Z,11.84
2022-10-13T21:03:30.989Z,11.84
2022-10-13T21:05:41.662Z,11.81
2022-10-13T21:07:45.535Z,11.81
2022-10-13T21:09:53.625Z,11.78
2022-10-13T21:12:00.868Z,11.77
2022-10-13T21:14:07.137Z,11.75
2022-10-13T21:16:14.659Z,11.73
2022-10-13T21:18:18.474Z,11.72
2022-10-13T21:20:22.356Z,11.69
2022-10-13T21:22:26.189Z,11.68
2022-10-13T21:24:30.110Z,11.66
2022-10-13T21:26:35.525Z,11.64
2022-10-13T21:28:40.336Z,11.63
2022-10-13T21:30:43.994Z,11.62
2022-10-13T21:32:49.247Z,11.60
2022-10-13T21:34:54.462Z,11.58
2022-10-13T21:36:58.318Z,11.58
2022-10-13T21:39:03.795Z,11.56
2022-10-13T21:41:10.953Z,11.55
2022-10-13T21:43:14.935Z,11.55
2022-10-13T21:45:19.181Z,11.55
2022-10-13T21:47:23.259Z,11.53
2022-10-13T21:49:28.792Z,11.52
2022-10-13T21:51:34.610Z,11.53
2022-10-13T21:53:39.121Z,11.52
2022-10-13T21:55:43.077Z,11.51
2022-10-13T21:57:46.981Z,11.50
2022-10-13T21:59:50.647Z,11.48
2022-10-13T22:01:54.284Z,11.47
2022-10-13T22:04:00.560Z,11.46
2022-10-13T22:06:14.608Z,11.43
2022-10-13T22:08:37.639Z,11.43
2022-10-13T22:10:49.818Z,11.41
2022-10-13T22:12:53.990Z,11.39
2022-10-13T22:14:58.101Z,11.39
2022-10-13T22:17:01.698Z,11.38
2022-10-13T22:19:05.971Z,11.37
2022-10-13T22:21:17.563Z,11.35
2022-10-13T22:23:21.545Z,11.33
2022-10-13T22:25:25.671Z,11.32
2022-10-13T22:27:29.882Z,11.31
2022-10-13T22:29:33.890Z,11.28
2022-10-13T22:31:38.382Z,11.26
2022-10-13T22:33:48.670Z,11.24
2022-10-13T22:35:52.609Z,11.21
2022-10-13T22:38:00.049Z,11.20
2022-10-13T22:40:04.077Z,11.18
2022-10-13T22:42:08.198Z,11.18
2022-10-13T22:44:12.520Z,11.17
2022-10-13T22:46:19.047Z,11.15
2022-10-13T22:48:22.705Z,11.14
2022-10-13T22:50:26.677Z,11.11
2022-10-13T22:52:30.589Z,11.11
2022-10-13T22:54:36.091Z,11.08
2022-10-13T22:56:41.807Z,11.08
2022-10-13T22:58:46.151Z,11.08
2022-10-13T23:00:59.096Z,11.08
2022-10-13T23:03:03.130Z,11.05
2022-10-13T23:05:07.422Z,11.03
2022-10-13T23:07:11.113Z,11.00
2022-10-13T23:09:16.053Z,10.99
2022-10-13T23:11:21.779Z,10.99
2022-10-13T23:13:25.631Z,10.98
2022-10-13T23:15:30.914Z,10.97
2022-10-13T23:17:35.539Z,10.95
2022-10-13T23:19:39.272Z,10.90
2022-10-13T23:21:42.962Z,10.88
2022-10-13T23:23:47.864Z,10.87
2022-10-13T23:25:51.642Z,10.88
2022-10-13T23:27:56.740Z,10.88
2022-10-13T23:30:00.413Z,10.84
2022-10-13T23:32:08.867Z,10.83
2022-10-13T23:34:13.633Z,10.81
2022-10-13T23:36:19.377Z,10.81
2022-10-13T23:38:27.848Z,10.80
2022-10-13T23:40:31.533Z,10.79
2022-10-13T23:42:35.291Z,10.78
2022-10-13T23:44:40.626Z,10.76
2022-10-13T23:46:44.437Z,10.75
2022-10-13T23:48:50.622Z,10.75
2022-10-13T23:50:54.476Z,10.72
2022-10-13T23:52:58.627Z,10.72
2022-10-13T23:55:02.328Z,10.70
2022-10-13T23:57:06.308Z,10.67
2022-10-13T23:59:10.318Z,10.66
